Time;durP1;ratioP1;P1;durP2;ratioP2;P2;SDS_P1;SDS_P2;PMS_P1;PMS_P2;Temp;Humidity;BMP_temperature;BMP_pressure;BME280_temperature;BME280_humidity;BME280_pressure;Samples;Min_cycle;Max_cycle;Signal;HPM_P1;HPM_P2
2021/04/06 00:00:28;;;;;;;1.27;0.98;;;;;;;20.17;27.02;95766.81;5070182;28;20550;-62
2021/04/06 00:02:56;;;;;;;0.85;0.68;;;;;;;20.16;27.10;95776.09;5070795;28;20060;-66
2021/04/06 00:05:22;;;;;;;0.98;0.98;;;;;;;20.15;27.10;95781.81;5055324;28;20056;-65
2021/04/06 00:07:50;;;;;;;0.90;0.90;;;;;;;20.13;26.86;95779.38;5070820;28;20588;-63
2021/04/06 00:10:27;;;;;;;0.82;0.70;;;;;;;20.12;26.87;95785.09;5053706;28;20060;-61
2021/04/06 00:12:54;;;;;;;5.15;1.70;;;;;;;20.10;26.81;95784.59;5072478;28;20052;-60
2021/04/06 00:15:20;;;;;;;0.80;0.80;;;;;;;20.08;27.07;95786.78;5054916;28;20052;-58
2021/04/06 00:17:46;;;;;;;1.00;0.70;;;;;;;20.05;27.10;95775.41;5071828;28;20117;-58
2021/04/06 00:20:12;;;;;;;0.75;0.73;;;;;;;20.04;27.08;95773.00;5050109;28;20117;-60
2021/04/06 00:22:38;;;;;;;0.80;0.80;;;;;;;20.02;26.83;95767.84;5067565;28;20052;-57
2021/04/06 00:25:06;;;;;;;0.50;0.50;;;;;;;20.00;26.84;95759.19;5066949;28;20114;-59
2021/04/06 00:27:37;;;;;;;0.52;0.52;;;;;;;19.99;27.02;95764.91;5050775;28;20056;-60
2021/04/06 00:30:08;;;;;;;0.60;0.60;;;;;;;19.96;26.77;95779.09;5051284;28;20049;-57
2021/04/06 00:32:34;;;;;;;0.70;0.57;;;;;;;19.94;27.04;95773.94;5068355;28;20068;-58
2021/04/06 00:35:01;;;;;;;0.70;0.70;;;;;;;19.91;26.95;95771.84;5066907;28;20080;-60
2021/04/06 00:37:26;;;;;;;0.75;0.75;;;;;;;19.90;27.01;95770.22;5066791;28;20049;-57
2021/04/06 00:40:18;;;;;;;0.73;0.73;;;;;;;19.88;27.02;95774.31;5068209;28;20040;-60
2021/04/06 00:42:44;;;;;;;0.73;0.73;;;;;;;19.87;26.91;95767.25;5062459;28;20044;-61
2021/04/06 00:45:10;;;;;;;0.80;0.80;;;;;;;19.86;26.89;95763.75;5052010;28;20044;-62
2021/04/06 00:47:35;;;;;;;0.52;0.52;;;;;;;19.82;26.96;95752.66;5068013;28;20084;-58
2021/04/06 00:50:04;;;;;;;1.20;0.82;;;;;;;19.81;26.86;95759.19;5083405;28;20106;-60
2021/04/06 00:52:31;;;;;;;0.50;0.50;;;;;;;19.79;26.84;95755.16;5067800;28;20040;-61
2021/04/06 00:54:57;;;;;;;0.85;0.70;;;;;;;19.78;26.92;95750.81;5067847;28;20082;-59
2021/04/06 00:57:26;;;;;;;1.27;1.17;;;;;;;19.76;26.77;95758.44;5067886;28;20072;-59
2021/04/06 01:00:16;;;;;;;1.38;1.23;;;;;;;19.72;27.15;95752.78;5065794;28;20072;-60
2021/04/06 01:03:09;;;;;;;1.25;0.77;;;;;;;19.71;26.95;95759.34;5066294;28;20064;-61
2021/04/06 01:06:01;;;;;;;0.63;0.63;;;;;;;19.69;26.92;95775.09;5063287;28;20057;-57
2021/04/06 01:08:33;;;;;;;0.57;0.57;;;;;;;19.66;27.01;95770.25;5067358;28;20483;-63
2021/04/06 01:11:02;;;;;;;0.60;0.60;;;;;;;19.63;26.81;95766.19;5066345;28;20106;-61
2021/04/06 01:13:27;;;;;;;0.55;0.55;;;;;;;19.61;26.81;95762.97;5066858;28;20048;-56
2021/04/06 01:15:56;;;;;;;0.70;0.70;;;;;;;19.59;26.80;95748.84;5067709;28;20044;-64
2021/04/06 01:18:23;;;;;;;0.50;0.50;;;;;;;19.59;27.00;95753.50;5068254;28;20109;-61
2021/04/06 01:20:48;;;;;;;0.77;0.47;;;;;;;19.57;26.94;95767.34;5067400;28;20102;-55
2021/04/06 01:23:15;;;;;;;0.65;0.65;;;;;;;19.56;27.00;95768.47;5067294;28;20048;-59
2021/04/06 01:25:53;;;;;;;0.47;0.40;;;;;;;19.53;26.76;95760.09;5067481;28;20079;-57
2021/04/06 01:28:18;;;;;;;0.60;0.57;;;;;;;19.52;27.03;95761.22;5068435;28;20578;-54
2021/04/06 01:30:47;;;;;;;0.50;0.50;;;;;;;19.49;26.57;95762.56;5066696;28;20508;-54
2021/04/06 01:33:18;;;;;;;0.50;0.50;;;;;;;19.48;26.76;95758.25;5067745;28;20105;-56
2021/04/06 01:35:48;;;;;;;0.38;0.38;;;;;;;19.47;26.68;95761.25;5067529;28;20053;-56
2021/04/06 01:38:14;;;;;;;0.57;0.55;;;;;;;19.45;26.52;95764.25;5062883;28;20369;-56
2021/04/06 01:40:41;;;;;;;0.60;0.60;;;;;;;19.43;26.46;95767.28;5065097;28;20052;-59
2021/04/06 01:43:07;;;;;;;0.55;0.55;;;;;;;19.41;26.65;95758.63;5070694;28;20239;-53
2021/04/06 01:45:38;;;;;;;1.10;0.50;;;;;;;19.41;26.84;95771.41;5046162;28;20053;-53
2021/04/06 01:48:04;;;;;;;0.90;0.40;;;;;;;19.33;26.87;95764.69;5046122;28;20058;-54
2021/04/06 01:50:29;;;;;;;0.40;0.40;;;;;;;19.36;26.54;95772.25;5045560;28;20048;-54
2021/04/06 01:52:55;;;;;;;0.30;0.30;;;;;;;19.34;26.58;95777.16;5047628;28;20079;-56
2021/04/06 01:55:30;;;;;;;0.50;0.50;;;;;;;19.32;26.73;95779.34;5066498;28;20071;-54
2021/04/06 01:57:55;;;;;;;0.30;0.30;;;;;;;19.31;26.79;95783.19;5066735;28;20185;-61
2021/04/06 02:00:36;;;;;;;0.63;0.60;;;;;;;19.29;26.78;95773.72;5049367;28;20130;-61
2021/04/06 02:03:07;;;;;;;0.68;0.50;;;;;;;19.26;26.77;95783.22;5065548;28;20055;-63
2021/04/06 02:05:33;;;;;;;0.75;0.60;;;;;;;19.24;26.78;95780.00;5065312;28;20052;-61
2021/04/06 02:08:02;;;;;;;0.45;0.45;;;;;;;19.23;26.54;95787.34;5066286;28;20074;-61
2021/04/06 02:10:28;;;;;;;0.77;0.57;;;;;;;19.22;26.58;95790.34;5065375;28;20503;-60
2021/04/06 02:12:54;;;;;;;0.50;0.50;;;;;;;19.19;26.35;95790.94;5065780;28;20048;-63
2021/04/06 02:15:19;;;;;;;0.45;0.45;;;;;;;19.18;26.30;95792.84;5067472;28;20083;-56
2021/04/06 02:17:51;;;;;;;1.45;0.47;;;;;;;19.17;26.63;95774.91;5066638;28;20044;-63
2021/04/06 02:20:21;;;;;;;0.52;0.30;;;;;;;19.15;26.48;95779.81;5066896;28;20048;-62
2021/04/06 02:23:16;;;;;;;0.73;0.45;;;;;;;19.13;26.36;95781.22;5066215;28;20041;-62
2021/04/06 02:25:42;;;;;;;0.50;0.50;;;;;;;19.12;26.76;95785.84;5064118;28;20381;-61
2021/04/06 02:28:08;;;;;;;0.60;0.45;;;;;;;19.08;26.67;95778.56;5065255;28;20075;-64
2021/04/06 02:30:33;;;;;;;0.77;0.40;;;;;;;19.08;26.76;95782.09;5064458;28;20527;-61
2021/04/06 02:33:00;;;;;;;0.65;0.52;;;;;;;19.04;26.33;95792.72;5065216;28;20048;-61
2021/04/06 02:35:26;;;;;;;0.75;0.50;;;;;;;19.03;26.42;95785.69;5066710;28;20049;-56
2021/04/06 02:37:51;;;;;;;0.32;0.30;;;;;;;19.03;26.42;95790.28;5067256;28;20052;-59
2021/04/06 02:40:18;;;;;;;0.43;0.43;;;;;;;19.01;26.79;95784.31;5065549;28;20441;-56
2021/04/06 02:42:45;;;;;;;0.38;0.38;;;;;;;18.99;26.59;95786.50;5065258;28;20351;-54
2021/04/06 02:45:18;;;;;;;0.77;0.45;;;;;;;18.97;26.65;95789.53;5065996;28;20098;-53
2021/04/06 02:47:49;;;;;;;0.50;0.43;;;;;;;18.95;26.52;95786.31;5065462;28;20052;-55
2021/04/06 02:50:21;;;;;;;0.93;0.50;;;;;;;18.94;26.44;95789.28;5064155;28;20053;-56
2021/04/06 02:52:47;;;;;;;0.75;0.50;;;;;;;18.91;26.76;95790.69;5081820;28;20048;-56
2021/04/06 02:55:13;;;;;;;0.40;0.40;;;;;;;18.90;26.39;95790.97;5066076;28;20527;-53
2021/04/06 02:57:46;;;;;;;0.38;0.38;;;;;;;18.88;26.38;95790.44;5065805;28;20513;-53
2021/04/06 03:00:32;;;;;;;0.50;0.50;;;;;;;18.85;26.62;95791.03;5066193;28;20051;-52
2021/04/06 03:03:03;;;;;;;0.30;0.30;;;;;;;18.83;26.39;95788.59;5065677;28;20044;-54
2021/04/06 03:05:29;;;;;;;0.40;0.40;;;;;;;18.82;26.65;95781.53;5065952;28;20040;-62
2021/04/06 03:07:55;;;;;;;0.90;0.43;;;;;;;18.79;26.67;95779.41;5065868;28;20484;-60
2021/04/06 03:10:20;;;;;;;0.88;0.40;;;;;;;18.78;26.25;95788.59;5065231;28;20159;-63
2021/04/06 03:12:49;;;;;;;1.25;0.68;;;;;;;18.76;26.39;95779.94;5065645;28;20040;-63
2021/04/06 03:15:25;;;;;;;1.70;0.65;;;;;;;18.74;26.71;95784.84;5065960;28;20052;-63
2021/04/06 03:17:54;;;;;;;0.70;0.40;;;;;;;18.72;26.39;95787.88;5067004;28;20726;-63
2021/04/06 03:20:20;;;;;;;0.82;0.45;;;;;;;18.71;26.62;95778.09;5067055;28;20526;-62
2021/04/06 03:22:49;;;;;;;0.50;0.30;;;;;;;18.68;26.28;95784.09;5065943;28;20076;-64
2021/04/06 03:25:14;;;;;;;1.90;0.70;;;;;;;18.69;26.54;95780.28;5065403;28;20461;-63
2021/04/06 03:27:47;;;;;;;0.95;0.43;;;;;;;18.68;26.52;95780.56;5065921;28;20056;-63
2021/04/06 03:30:15;;;;;;;0.60;0.57;;;;;;;18.66;26.57;95775.44;5065339;28;20055;-62
2021/04/06 03:32:40;;;;;;;0.93;0.40;;;;;;;18.65;26.63;95784.66;5065350;28;20048;-63
2021/04/06 03:35:07;;;;;;;0.50;0.50;;;;;;;18.63;26.23;95789.56;5065626;28;20399;-64
2021/04/06 03:37:35;;;;;;;1.15;0.63;;;;;;;18.60;26.47;95795.56;5065459;28;20128;-62
2021/04/06 03:40:01;;;;;;;1.17;0.50;;;;;;;18.59;26.30;95785.81;5057549;28;20056;-64
2021/04/06 03:42:27;;;;;;;1.42;0.50;;;;;;;18.57;26.22;95777.97;5044437;28;20057;-63
2021/04/06 03:45:08;;;;;;;1.35;0.80;;;;;;;18.55;26.32;95769.31;5045728;28;20041;-63
2021/04/06 03:47:53;;;;;;;0.90;0.50;;;;;;;18.53;26.44;95778.81;5044747;28;20056;-62
2021/04/06 03:50:38;;;;;;;1.45;0.70;;;;;;;18.51;26.42;95784.53;5045338;28;20057;-63
2021/04/06 03:53:07;;;;;;;;;;;;;;;18.51;26.34;95786.41;5048605;28;20044;-62
2021/04/06 03:55:33;;;;;;;1.23;0.55;;;;;;;18.48;26.50;95792.41;5067739;28;19912;-63
2021/04/06 03:58:25;;;;;;;0.93;0.60;;;;;;;18.45;26.30;95788.38;5068689;28;20054;-64
2021/04/06 04:00:51;;;;;;;1.38;0.50;;;;;;;18.43;26.64;95787.84;5067802;28;20036;-62
2021/04/06 04:03:16;;;;;;;0.65;0.40;;;;;;;18.41;26.40;95790.84;5083858;28;20403;-62
2021/04/06 04:05:42;;;;;;;1.35;0.68;;;;;;;18.40;26.71;95785.69;5068122;28;20047;-64
2021/04/06 04:08:08;;;;;;;0.88;0.35;;;;;;;18.40;26.38;95796.53;5069209;28;20140;-63
2021/04/06 04:10:33;;;;;;;0.85;0.60;;;;;;;18.37;26.30;95789.78;5068125;28;20753;-64
2021/04/06 04:12:59;;;;;;;1.75;0.40;;;;;;;18.36;26.31;95796.31;5068073;28;20088;-63
2021/04/06 04:15:24;;;;;;;1.20;0.50;;;;;;;18.36;26.79;95792.78;5068424;28;20174;-64
2021/04/06 04:17:50;;;;;;;1.20;0.88;;;;;;;18.34;26.63;95797.66;5069419;28;20075;-63
2021/04/06 04:20:20;;;;;;;1.20;0.80;;;;;;;18.32;26.32;95792.56;5068671;28;20071;-63
2021/04/06 04:22:47;;;;;;;1.55;1.13;;;;;;;18.31;26.36;95803.69;5068564;28;20055;-64
2021/04/06 04:25:13;;;;;;;0.50;0.50;;;;;;;18.30;26.56;95799.31;5068141;28;20051;-61
2021/04/06 04:27:39;;;;;;;0.60;0.30;;;;;;;18.29;26.67;95797.72;5068336;28;20450;-60
2021/04/06 04:30:05;;;;;;;1.40;0.85;;;;;;;18.28;26.54;95793.38;5068727;28;20102;-64
2021/04/06 04:32:31;;;;;;;0.80;0.50;;;;;;;18.27;26.55;95802.63;5069102;28;20404;-62
2021/04/06 04:34:56;;;;;;;0.93;0.52;;;;;;;18.25;26.41;95799.38;5067810;28;20048;-61
2021/04/06 04:37:22;;;;;;;0.88;0.50;;;;;;;18.23;26.35;95797.75;5068970;28;20450;-64
2021/04/06 04:39:47;;;;;;;0.93;0.60;;;;;;;18.22;26.70;95806.97;5067585;28;20080;-63
2021/04/06 04:42:13;;;;;;;0.70;0.70;;;;;;;18.22;26.53;95819.75;5068175;28;20064;-61
2021/04/06 04:44:38;;;;;;;0.93;0.60;;;;;;;18.19;26.15;95810.25;5067670;28;20040;-63
2021/04/06 04:47:04;;;;;;;1.55;0.50;;;;;;;18.19;26.34;95806.72;5067880;28;20137;-64
2021/04/06 04:49:30;;;;;;;1.02;0.65;;;;;;;18.18;26.27;95813.25;5068374;28;20535;-62
2021/04/06 04:51:55;;;;;;;0.93;0.85;;;;;;;18.16;26.27;95801.88;5068194;28;20056;-63
2021/04/06 04:54:21;;;;;;;1.13;0.60;;;;;;;18.16;26.16;95804.59;5068010;28;20071;-59
2021/04/06 04:56:47;;;;;;;0.85;0.65;;;;;;;18.13;26.44;95805.94;5067952;28;20048;-60
2021/04/06 04:59:12;;;;;;;1.67;0.70;;;;;;;18.12;26.60;95801.63;5068112;28;20083;-60
2021/04/06 05:01:38;;;;;;;1.23;0.60;;;;;;;18.11;26.58;95807.31;5066742;28;20135;-61
2021/04/06 05:04:03;;;;;;;1.52;0.60;;;;;;;18.09;26.50;95807.63;5067535;28;20795;-64
2021/04/06 05:06:29;;;;;;;0.50;0.50;;;;;;;18.08;26.54;95816.03;5067073;28;20076;-61
2021/04/06 05:08:54;;;;;;;0.77;0.60;;;;;;;18.06;26.30;95810.88;5066823;28;20126;-58
2021/04/06 05:11:20;;;;;;;0.93;0.70;;;;;;;18.05;26.28;95819.28;5066799;28;20507;-62
2021/04/06 05:13:47;;;;;;;0.68;0.50;;;;;;;18.03;26.41;95822.31;5067354;28;20075;-66
2021/04/06 05:16:13;;;;;;;1.08;0.75;;;;;;;18.01;26.24;95817.16;5066945;28;20060;-61
2021/04/06 05:18:38;;;;;;;0.73;0.60;;;;;;;18.00;26.28;95820.13;5067320;28;20135;-59
2021/04/06 05:21:04;;;;;;;0.75;0.75;;;;;;;18.00;26.68;95817.44;5066657;28;20048;-59
2021/04/06 05:23:30;;;;;;;0.80;0.60;;;;;;;17.97;26.18;95810.69;5067638;28;20055;-60
2021/04/06 05:25:55;;;;;;;0.70;0.50;;;;;;;17.96;26.46;95809.03;5066828;28;20076;-56
2021/04/06 05:28:21;;;;;;;1.45;0.75;;;;;;;17.93;26.86;95804.19;5067837;28;20098;-60
2021/04/06 05:30:47;;;;;;;2.45;1.02;;;;;;;17.93;26.27;95814.25;5067455;28;20049;-55
2021/04/06 05:33:12;;;;;;;1.17;0.63;;;;;;;17.91;26.49;95813.72;5066910;28;20057;-55
2021/04/06 05:35:38;;;;;;;1.25;1.13;;;;;;;17.89;26.35;95813.19;5066644;28;20670;-58
2021/04/06 05:38:03;;;;;;;1.60;0.90;;;;;;;17.87;26.55;95813.44;5067073;28;20050;-57
2021/04/06 05:40:29;;;;;;;0.85;0.60;;;;;;;17.87;26.49;95828.91;5066888;28;20048;-59
2021/04/06 05:42:55;;;;;;;0.98;0.82;;;;;;;17.85;26.60;95822.94;5066602;28;20495;-56
2021/04/06 05:45:20;;;;;;;0.80;0.80;;;;;;;17.82;26.73;95827.84;5065794;28;20101;-56
2021/04/06 05:47:49;;;;;;;1.13;0.60;;;;;;;17.81;26.40;95826.16;5067237;28;20052;-58
2021/04/06 05:50:14;;;;;;;0.80;0.80;;;;;;;17.79;26.36;95825.63;5066544;28;20052;-57
2021/04/06 05:52:40;;;;;;;1.15;0.70;;;;;;;17.79;26.64;95830.25;5066032;28;20097;-60
2021/04/06 05:55:06;;;;;;;2.35;0.90;;;;;;;17.76;26.44;95825.41;5065028;28;20052;-58
2021/04/06 05:57:32;;;;;;;1.00;0.90;;;;;;;17.74;26.59;95828.38;5066768;28;20412;-54
2021/04/06 05:59:57;;;;;;;0.57;0.57;;;;;;;17.72;26.41;95833.28;5082171;28;20060;-56
2021/04/06 06:02:23;;;;;;;1.23;0.98;;;;;;;17.71;26.51;95823.50;5067242;28;20137;-53
2021/04/06 06:04:49;;;;;;;1.80;0.77;;;;;;;17.69;26.84;95831.09;5065202;28;20207;-57
2021/04/06 06:07:16;;;;;;;3.83;1.25;;;;;;;17.68;26.71;95829.50;5065309;28;20947;-53
2021/04/06 06:09:42;;;;;;;305.13;190.00;;;;;;;17.67;26.89;95827.06;5061783;28;20059;-54
2021/04/06 06:12:10;;;;;;;221.35;142.50;;;;;;;17.65;26.77;95824.63;5066341;28;20118;-52
2021/04/06 06:14:37;;;;;;;111.60;74.32;;;;;;;17.66;27.01;95828.97;5066038;28;20053;-53
2021/04/06 06:17:15;;;;;;;76.15;48.33;;;;;;;17.65;27.11;95829.25;5064958;28;20147;-59
2021/04/06 06:19:41;;;;;;;60.83;40.30;;;;;;;17.66;27.16;95831.69;5065110;28;20054;-62
2021/04/06 06:22:14;;;;;;;70.07;47.28;;;;;;;17.67;27.01;95827.06;5065815;28;20048;-62
2021/04/06 06:24:43;;;;;;;57.72;39.10;;;;;;;17.70;27.01;95831.94;5046934;28;20087;-60
2021/04/06 06:27:41;;;;;;;51.50;34.20;;;;;;;17.73;27.13;95834.06;5064441;28;20048;-59
2021/04/06 06:30:36;;;;;;;44.13;29.27;;;;;;;17.77;26.90;95838.66;5065636;28;20048;-62
2021/04/06 06:33:17;;;;;;;38.50;27.30;;;;;;;17.83;27.11;95834.06;5045965;28;20041;-61
2021/04/06 06:35:45;;;;;;;36.40;25.42;;;;;;;17.90;27.07;95844.59;5045058;28;20049;-62
2021/04/06 06:38:31;;;;;;;32.85;22.83;;;;;;;17.96;27.21;95841.56;5046420;28;20048;-60
2021/04/06 06:41:08;;;;;;;36.83;24.70;;;;;;;18.05;26.86;95838.25;5045856;28;20049;-60
2021/04/06 06:43:34;;;;;;;30.05;21.25;;;;;;;18.14;27.27;95842.81;5045432;28;20637;-62
2021/04/06 06:45:59;;;;;;;26.55;18.75;;;;;;;18.24;26.78;95844.66;5061282;28;20077;-60
2021/04/06 06:48:26;;;;;;;26.73;18.45;;;;;;;18.33;27.26;95850.28;5052141;28;20057;-61
2021/04/06 06:50:52;;;;;;;26.25;17.33;;;;;;;18.43;26.86;95844.78;5051056;28;20108;-63
2021/04/06 06:53:38;;;;;;;25.08;17.60;;;;;;;18.55;27.05;95856.09;5065038;28;20040;-64
2021/04/06 06:56:04;;;;;;;22.45;16.52;;;;;;;18.69;26.67;95855.44;5065249;28;20060;-61
2021/04/06 06:58:34;;;;;;;22.38;15.20;;;;;;;18.81;26.56;95850.47;5065371;28;20679;-63
2021/04/06 07:01:03;;;;;;;23.35;14.65;;;;;;;18.95;26.47;95853.31;5065570;28;20143;-63
2021/04/06 07:03:29;;;;;;;19.92;13.15;;;;;;;19.08;26.49;95858.09;5064970;28;20067;-54
2021/04/06 07:05:56;;;;;;;17.55;13.35;;;;;;;19.21;26.25;95851.19;5056704;28;20127;-57
2021/04/06 07:08:34;;;;;;;15.63;11.75;;;;;;;19.36;26.03;95858.34;5066593;28;20055;-65
2021/04/06 07:11:00;;;;;;;17.58;13.00;;;;;;;19.50;26.08;95861.19;5066438;28;20068;-63
2021/04/06 07:13:31;;;;;;;16.20;12.25;;;;;;;19.64;25.85;95853.97;5065708;28;20094;-62
2021/04/06 07:15:57;;;;;;;14.05;11.57;;;;;;;19.78;25.56;95849.44;5065071;28;20047;-62
2021/04/06 07:18:26;;;;;;;16.00;11.65;;;;;;;19.92;25.66;95857.69;5065005;28;20143;-61
2021/04/06 07:20:58;;;;;;;16.10;11.20;;;;;;;20.07;25.30;95856.69;5065477;28;20201;-62
2021/04/06 07:23:35;;;;;;;18.92;10.73;;;;;;;20.22;25.54;95850.22;5064279;28;20055;-62
2021/04/06 07:26:05;;;;;;;21.83;12.15;;;;;;;20.38;25.38;95843.44;5065120;28;20091;-62
2021/04/06 07:28:31;;;;;;;20.88;11.93;;;;;;;20.54;25.21;95844.03;5066509;28;20079;-62
2021/04/06 07:30:56;;;;;;;19.00;10.98;;;;;;;20.67;25.01;95842.50;5051557;28;20109;-54
2021/04/06 07:33:22;;;;;;;16.88;10.27;;;;;;;20.82;25.04;95857.75;5069158;28;20135;-63
2021/04/06 07:35:47;;;;;;;16.42;9.00;;;;;;;20.94;24.88;95847.19;5067701;28;20041;-59
2021/04/06 07:38:13;;;;;;;15.43;9.20;;;;;;;21.06;24.80;95843.97;5067799;28;20540;-62
2021/04/06 07:40:38;;;;;;;16.73;8.95;;;;;;;21.19;24.57;95845.94;5068734;28;20051;-63
2021/04/06 07:43:07;;;;;;;17.35;9.93;;;;;;;21.30;24.42;95848.47;5068213;28;20078;-64
2021/04/06 07:45:32;;;;;;;13.77;8.50;;;;;;;21.40;24.35;95846.34;5069482;28;20044;-59
2021/04/06 07:47:58;;;;;;;15.27;9.23;;;;;;;21.51;24.30;95847.00;5069458;28;20508;-62
2021/04/06 07:50:37;;;;;;;16.10;9.02;;;;;;;21.61;24.09;95849.53;5069414;28;20052;-59
2021/04/06 07:53:28;;;;;;;15.90;8.48;;;;;;;21.70;23.92;95844.16;5069323;28;20131;-64
2021/04/06 07:55:59;;;;;;;13.18;7.82;;;;;;;21.80;23.76;95848.59;5069291;28;20055;-64
2021/04/06 07:58:43;;;;;;;13.98;7.35;;;;;;;21.88;23.56;95852.50;5067643;28;20064;-65
2021/04/06 08:01:08;;;;;;;10.70;7.20;;;;;;;21.96;23.51;95854.53;5068853;28;20052;-62
2021/04/06 08:03:49;;;;;;;13.57;7.55;;;;;;;22.01;23.38;95855.22;5067318;28;20040;-60
2021/04/06 08:06:22;;;;;;;11.23;8.05;;;;;;;22.08;23.39;95854.81;5068549;28;20056;-60
2021/04/06 08:08:47;;;;;;;9.38;6.40;;;;;;;22.14;23.13;95855.50;5068601;28;20044;-64
2021/04/06 08:11:13;;;;;;;8.68;5.97;;;;;;;22.18;23.05;95851.84;5068900;28;20070;-62
2021/04/06 08:13:39;;;;;;;10.55;6.00;;;;;;;22.22;23.09;95854.78;5068587;28;20547;-62
2021/04/06 08:16:17;;;;;;;9.00;6.10;;;;;;;22.23;23.20;95857.25;5068511;28;20048;-64
2021/04/06 08:18:52;;;;;;;10.07;5.75;;;;;;;22.25;22.98;95849.56;5068680;28;20079;-61
2021/04/06 08:21:22;;;;;;;12.60;6.18;;;;;;;22.26;22.76;95856.63;5068747;28;20135;-61
2021/04/06 08:23:48;;;;;;;13.60;5.93;;;;;;;22.28;22.76;95856.31;5068618;28;20036;-64
2021/04/06 08:26:27;;;;;;;10.10;5.35;;;;;;;22.29;22.65;95854.38;5068950;28;20363;-62
2021/04/06 08:28:52;;;;;;;6.47;4.88;;;;;;;22.31;22.56;95857.63;5069154;28;20516;-61
2021/04/06 08:31:24;;;;;;;7.95;4.28;;;;;;;22.30;22.74;95859.56;5068215;28;20127;-58
2021/04/06 08:33:50;;;;;;;8.85;4.78;;;;;;;22.32;22.58;95859.22;5069612;28;20053;-62
2021/04/06 08:36:42;;;;;;;5.15;3.95;;;;;;;22.30;22.45;95850.56;5068256;28;20072;-62
2021/04/06 08:39:08;;;;;;;7.10;4.90;;;;;;;22.31;22.61;95855.69;5063731;28;20079;-58
2021/04/06 08:41:35;;;;;;;8.98;4.53;;;;;;;22.31;22.67;95866.59;5066106;28;20563;-58
2021/04/06 08:44:05;;;;;;;7.78;4.05;;;;;;;22.31;22.61;95857.63;5068233;28;20047;-56
2021/04/06 08:46:37;;;;;;;6.60;3.95;;;;;;;22.30;22.49;95859.56;5067545;28;20094;-60
2021/04/06 08:49:20;;;;;;;5.47;3.88;;;;;;;22.30;22.50;95853.28;5068130;28;20106;-62
2021/04/06 08:51:51;;;;;;;4.75;3.85;;;;;;;22.30;22.33;95858.75;5059449;28;20044;-59
2021/04/06 08:54:24;;;;;;;6.40;4.20;;;;;;;22.29;22.50;95854.38;5060778;28;20040;-58
2021/04/06 08:57:00;;;;;;;6.90;4.35;;;;;;;22.29;22.51;95844.28;5066808;28;20052;-60
2021/04/06 08:59:37;;;;;;;5.15;3.47;;;;;;;22.28;22.23;95853.59;5068186;28;20086;-60
2021/04/06 09:02:10;;;;;;;7.40;3.85;;;;;;;22.29;22.21;95851.66;5067832;28;20049;-57
2021/04/06 09:04:37;;;;;;;7.07;3.67;;;;;;;22.29;22.18;95852.47;5067249;28;20052;-57
2021/04/06 09:07:16;;;;;;;12.35;11.23;;;;;;;22.30;22.03;95853.28;5067866;28;20072;-59
2021/04/06 09:09:42;;;;;;;10.60;9.50;;;;;;;22.29;22.11;95847.00;5065595;28;20075;-59
2021/04/06 09:12:07;;;;;;;8.60;7.07;;;;;;;22.31;21.95;95847.50;5067012;28;20068;-61
2021/04/06 09:14:33;;;;;;;9.10;6.72;;;;;;;22.31;21.87;95846.72;5066556;28;20056;-57
2021/04/06 09:16:59;;;;;;;7.45;6.57;;;;;;;22.32;22.01;95842.84;5066744;28;20052;-57
2021/04/06 09:19:24;;;;;;;9.10;5.68;;;;;;;22.29;21.64;95844.28;5067240;28;20141;-67
2021/04/06 09:21:55;;;;;;;6.63;5.85;;;;;;;22.32;21.85;95849.13;5067828;28;20052;-53
2021/04/06 09:24:22;;;;;;;5.90;5.20;;;;;;;22.33;21.68;95845.28;5068366;28;20044;-60
2021/04/06 09:26:50;;;;;;;5.82;4.90;;;;;;;22.33;21.94;95837.09;5067129;28;20053;-55
2021/04/06 09:29:52;;;;;;;6.65;4.50;;;;;;;22.33;21.84;95834.38;5065674;28;20087;-54
2021/04/06 09:32:19;;;;;;;7.18;5.13;;;;;;;22.33;21.81;95837.09;5004884;28;20057;-62
2021/04/06 09:34:47;;;;;;;7.53;4.93;;;;;;;22.33;21.68;95834.38;5053841;28;20052;-65
2021/04/06 09:37:22;;;;;;;6.05;4.32;;;;;;;22.33;21.70;95834.38;5066837;28;20091;-61
2021/04/06 09:39:54;;;;;;;5.63;4.45;;;;;;;22.34;21.73;95829.72;5066885;28;20052;-66
2021/04/06 09:42:19;;;;;;;6.93;4.95;;;;;;;22.35;21.69;95825.88;5068018;28;20052;-64
2021/04/06 09:44:46;;;;;;;5.82;4.43;;;;;;;22.35;21.57;95818.50;5067106;28;20079;-65
2021/04/06 09:47:13;;;;;;;6.43;4.68;;;;;;;22.36;21.79;95817.38;5066934;28;20377;-65
2021/04/06 09:49:41;;;;;;;7.15;4.60;;;;;;;22.38;21.74;95817.06;5067438;28;20063;-65
2021/04/06 09:52:12;;;;;;;7.07;4.63;;;;;;;22.39;21.41;95815.97;5065734;28;20117;-66
2021/04/06 09:54:41;;;;;;;5.57;3.97;;;;;;;22.39;21.51;95808.56;5066528;28;20041;-65
2021/04/06 09:57:11;;;;;;;5.95;4.32;;;;;;;22.39;21.58;95805.84;5066539;28;20131;-64
2021/04/06 09:59:38;;;;;;;5.80;4.45;;;;;;;22.41;21.35;95803.63;5065030;28;20109;-60
2021/04/06 10:02:03;;;;;;;7.72;4.68;;;;;;;22.43;21.55;95800.59;5066368;28;20048;-61
2021/04/06 10:04:40;;;;;;;5.60;3.55;;;;;;;22.44;21.39;95788.53;5066452;28;20071;-64
2021/04/06 10:07:17;;;;;;;6.43;4.20;;;;;;;22.46;21.45;95789.03;5065494;28;20101;-60
2021/04/06 10:09:49;;;;;;;5.18;3.67;;;;;;;22.50;21.64;95791.97;5064183;28;20052;-56
2021/04/06 10:12:16;;;;;;;4.80;3.58;;;;;;;22.54;21.19;95796.47;5061015;28;20091;-56
2021/04/06 10:14:42;;;;;;;4.47;3.45;;;;;;;22.56;21.26;95788.78;5066795;28;20044;-60
2021/04/06 10:17:14;;;;;;;4.38;3.30;;;;;;;22.61;21.16;95785.13;5066169;28;20052;-60
2021/04/06 10:19:45;;;;;;;5.47;3.95;;;;;;;22.66;21.50;95787.72;5064900;28;20110;-59
2021/04/06 10:22:12;;;;;;;9.68;8.02;;;;;;;22.72;21.25;95785.69;5067232;28;20060;-55
2021/04/06 10:24:47;;;;;;;7.53;6.43;;;;;;;22.76;21.34;95792.94;5065445;28;20048;-59
2021/04/06 10:27:26;;;;;;;7.05;5.72;;;;;;;22.83;21.13;95789.75;5064900;28;20052;-60
2021/04/06 10:29:59;;;;;;;6.00;5.00;;;;;;;22.89;21.04;95791.25;5066079;28;20055;-60
2021/04/06 10:32:49;;;;;;;6.63;4.93;;;;;;;22.95;21.14;95779.06;5064172;28;20279;-62
2021/04/06 10:35:26;;;;;;;6.40;4.63;;;;;;;23.02;21.35;95784.09;5065044;28;20048;-60
2021/04/06 10:37:56;;;;;;;5.05;4.32;;;;;;;23.08;20.97;95788.31;5066791;28;20052;-59
2021/04/06 10:40:25;;;;;;;7.35;4.82;;;;;;;23.15;21.11;95776.94;5049022;28;20036;-61
2021/04/06 10:42:52;;;;;;;6.18;4.43;;;;;;;23.19;20.95;95795.09;5065987;28;20049;-64
2021/04/06 10:45:18;;;;;;;260.30;87.93;;;;;;;23.25;20.92;95784.84;5065648;28;20037;-62
2021/04/06 10:47:44;;;;;;;220.48;77.78;;;;;;;23.29;20.78;95787.75;5066010;28;20568;-63
2021/04/06 10:50:10;;;;;;;213.10;76.38;;;;;;;23.34;20.85;95784.88;5064145;28;20073;-65
2021/04/06 10:52:39;;;;;;;183.43;64.97;;;;;;;23.39;21.11;95782.81;5065275;28;20048;-61
2021/04/06 10:55:06;;;;;;;154.70;55.03;;;;;;;23.44;20.77;95779.13;5065593;28;20078;-63
2021/04/06 10:57:34;;;;;;;132.68;51.47;;;;;;;23.48;20.86;95786.38;5065173;28;20392;-59
2021/04/06 11:00:35;;;;;;;142.80;50.10;;;;;;;23.53;20.63;95773.69;5065443;28;20048;-66
2021/04/06 11:03:11;;;;;;;114.60;43.90;;;;;;;23.56;20.80;95770.31;5003049;28;20456;-65
2021/04/06 11:05:38;;;;;;;113.60;45.67;;;;;;;23.58;20.53;95766.13;5057044;28;20106;-64
2021/04/06 11:08:24;;;;;;;109.47;42.40;;;;;;;23.59;20.83;95765.03;5065152;28;20083;-64
2021/04/06 11:10:55;;;;;;;106.13;40.88;;;;;;;23.63;20.71;95763.25;5057742;28;20135;-62
2021/04/06 11:13:21;;;;;;;113.68;41.97;;;;;;;23.67;21.03;95764.22;5063087;28;20131;-60
2021/04/06 11:15:47;;;;;;;89.07;36.83;;;;;;;23.72;20.68;95757.81;5080207;28;20044;-63
2021/04/06 11:18:13;;;;;;;89.07;34.90;;;;;;;23.74;20.69;95761.03;5064937;28;20083;-63
2021/04/06 11:20:38;;;;;;;88.28;35.38;;;;;;;23.75;20.67;95762.63;5065585;28;20130;-63
2021/04/06 11:23:04;;;;;;;90.60;33.67;;;;;;;23.79;20.41;95760.91;5061300;28;20067;-58
2021/04/06 11:25:32;;;;;;;80.70;32.40;;;;;;;23.82;20.39;95759.44;5063143;28;20083;-58
2021/04/06 11:28:00;;;;;;;74.25;30.85;;;;;;;23.84;20.59;95758.03;5064502;28;20137;-61
2021/04/06 11:30:32;;;;;;;74.18;28.33;;;;;;;23.86;20.28;95761.25;5064345;28;20048;-64
2021/04/06 11:32:59;;;;;;;68.95;28.35;;;;;;;23.90;20.28;95746.91;5064790;28;20036;-62
2021/04/06 11:35:25;;;;;;;58.08;25.33;;;;;;;23.92;20.37;95755.59;5064208;28;20737;-60
2021/04/06 11:37:50;;;;;;;57.30;25.77;;;;;;;23.93;20.22;95758.03;5066322;28;20044;-65
2021/04/06 11:40:16;;;;;;;64.90;26.15;;;;;;;23.95;20.49;95760.41;5064559;28;20084;-65